Últimos sismos

MagnitudMag. Fecha y hora Epicentro localización: latitud, longitud loc.: lat., long. ProfundidadProf.
4.4 2019-01-17    12:56:38 181 km al SURESTE de SAN FELIPE, BC: 29.61°, -113.91° 10 km
4.0 2019-01-17    11:04:25 40 km al NORESTE de SAN MARCOS, GRO: 17.11°, -99.20° 46 km
3.1 2019-01-17    10:37:12 15 km al SUROESTE de PINOTEPA NACIONAL, OAX: 16.23°, -98.13° 11 km
4.1 2019-01-17    10:28:19 44 km al SUROESTE de CD HIDALGO, CHIS: 14.54°, -92.54° 63 km
3.8 2019-01-17    10:26:32 71 km al SUROESTE de H GUAYMAS, SON: 27.39°, -111.32° 10 km
3.8 2019-01-17    10:13:05 4 km al SUROESTE de JUCHITAN DE ZARAGOZA, OAX: 16.42°, -95.05° 31 km
3.4 2019-01-17    09:41:10 18 km al NOROESTE de ARRIAGA , CHIS: 16.36°, -94.00° 32 km
3.7 2019-01-17    09:38:22 51 km al NOROESTE de ARRIAGA , CHIS: 16.53°, -94.27° 10 km
3.6 2019-01-17    09:19:45 97 km al SURESTE de SALINA CRUZ, OAX: 15.39°, -94.81° 16 km
3.4 2019-01-17    09:13:19 20 km al ESTE de PINOTEPA NACIONAL, OAX: 16.34°, -97.86° 5 km
3.9 2019-01-17    08:43:19 24 km al ESTE de PINOTEPA NACIONAL, OAX: 16.29°, -97.84° 5 km
3.5 2019-01-17    08:39:54 22 km al NOROESTE de PUERTO ESCONDIDO, OAX: 16.05°, -97.15° 27 km
3.8 2019-01-17    08:35:00 45 km al SUR de SALINA CRUZ, OAX: 15.79°, -95.10° 106 km
3.6 2019-01-17    08:08:26 105 km al SURESTE de SALINA CRUZ, OAX: 15.33°, -94.75° 16 km
3.1 2019-01-17    07:57:59 14 km al SURESTE de PINOTEPA NACIONAL, OAX: 16.28°, -97.93° 33 km
3.7 2019-01-17    07:27:14 23 km al SUROESTE de OMETEPEC, GRO: 16.56°, -98.57° 5 km
4.1 2019-01-17    07:23:52 32 km al SUR de CD HIDALGO, CHIS: 14.40°, -92.23° 73 km
3.9 2019-01-17    07:21:10 70 km al SUR de SALINA CRUZ, OAX: 15.57°, -95.06° 25 km
3.2 2019-01-17    07:11:45 15 km al SURESTE de PINOTEPA NACIONAL, OAX: 16.29°, -97.92° 31 km
3.5 2019-01-17    07:10:52 80 km al SUROESTE de CIHUATLAN, JAL: 18.61°, -104.94° 17 km
3.6 2019-01-17    06:28:58 47 km al NORESTE de MATIAS ROMERO, OAX: 17.16°, -94.71° 117 km
3.3 2019-01-17    05:04:30 19 km al SURESTE de PINOTEPA NACIONAL, OAX: 16.20°, -97.95° 24 km
3.9 2019-01-17    04:48:56 8 km al SUR de PINOTEPA NACIONAL, OAX: 16.27°, -98.06° 10 km
3.4 2019-01-17    04:38:36 23 km al SUR de SALINA CRUZ, OAX: 15.97°, -95.19° 68 km
3.0 2019-01-17    04:25:32 8 km al SURESTE de PINOTEPA NACIONAL, OAX: 16.29°, -97.99° 36 km
3.7 2019-01-17    03:48:26 12 km al SURESTE de S BLAS ATEMPA, OAX: 16.30°, -95.12° 13 km
3.7 2019-01-17    03:44:01 112 km al SUROESTE de RIO GRANDE, OAX: 15.31°, -98.19° 16 km
3.8 2019-01-17    03:23:44 116 km al SURESTE de SALINA CRUZ, OAX: 15.25°, -94.69° 23 km
3.7 2019-01-17    03:15:27 66 km al NORESTE de SANTA ROSALIA, BCS: 27.63°, -111.69° 10 km
4.1 2019-01-17    03:04:57 21 km al NORESTE de MATIAS ROMERO, OAX: 17.01°, -94.90° 26 km
3.6 2019-01-17    02:55:40 33 km al NOROESTE de CASIMIRO CASTILLO, JAL: 19.77°, -104.70° 29 km
3.9 2019-01-17    02:37:35 17 km al SURESTE de PINOTEPA NACIONAL, OAX: 16.27°, -97.91° 10 km
3.8 2019-01-17    02:32:56 30 km al NORESTE de ACAPULCO, GRO: 16.96°, -99.63° 29 km
3.8 2019-01-17    02:19:35 3 km al SUR de YAUTEPEC, MOR: 18.86°, -99.06° 15 km
3.3 2019-01-17    01:47:41 7 km al SUR de PINOTEPA NACIONAL, OAX: 16.28°, -98.04° 2 km
4.0 2019-01-17    01:42:55 58 km al SUR de ACAPULCO, GRO: 16.36°, -99.78° 5 km
3.8 2019-01-17    01:41:43 47 km al NOROESTE de TEHUANTEPEC, OAX: 16.50°, -95.64° 34 km
3.5 2019-01-17    01:29:37 12 km al SURESTE de CRUCECITA, OAX: 15.70°, -96.05° 3 km
3.9 2019-01-17    01:18:31 74 km al SUR de COALCOMAN, MICH: 18.12°, -103.23° 6 km
3.8 2019-01-17    00:54:56 70 km al SURESTE de SALINA CRUZ, OAX: 15.59°, -94.98° 16 km
3.2 2019-01-17    00:40:01 63 km al NORESTE de MATIAS ROMERO, OAX: 17.07°, -94.48° 135 km
2.3 2019-01-17    00:21:34 44 km al NORESTE de ENSENADA, BC: 32.21°, -116.38° 16 km
3.3 2019-01-17    00:07:54 22 km al ESTE de PINOTEPA NACIONAL, OAX: 16.36°, -97.84° 4 km
3.8 2019-01-17    00:00:57 64 km al NORESTE de SANTA ROSALIA, BCS: 27.79°, -111.85° 10 km
2.4 2019-01-16    23:40:29 60 km al NORESTE de VICENTE GUERRERO, BC: 31.16°, -115.61° 13 km
3.4 2019-01-16    23:32:28 22 km al NORESTE de PINOTEPA NACIONAL, OAX: 16.39°, -97.86° 2 km
3.6 2019-01-16    22:24:43 52 km al SUROESTE de SALINA CRUZ, OAX: 15.91°, -95.59° 47 km
3.6 2019-01-16    22:08:25 62 km al SUROESTE de SAYULA DE ALEMAN, VER: 17.40°, -95.26° 116 km
2.6 2019-01-16    21:43:46 32 km al NORESTE de ENSENADA, BC: 31.95°, -116.29° 15 km
3.3 2019-01-16    21:34:09 11 km al NORESTE de PUERTO ESCONDIDO, OAX: 15.89°, -96.97° 15 km
3.9 2019-01-16    21:08:37 40 km al OESTE de PIJIJIAPAN, CHIS: 15.66°, -93.59° 88 km
3.7 2019-01-16    20:53:06 2 km al SUROESTE de EMILIANO ZAPATA, MOR: 18.83°, -99.20° 2 km
3.1 2019-01-16    20:42:59 14 km al ESTE de PINOTEPA NACIONAL, OAX: 16.35°, -97.92° 10 km
3.7 2019-01-16    20:40:03 3 km al SUROESTE de EMILIANO ZAPATA, MOR: 18.82°, -99.20° 2 km
3.9 2019-01-16    20:37:10 68 km al NORESTE de MATIAS ROMERO, OAX: 17.32°, -94.61° 146 km
3.9 2019-01-16    20:22:34 177 km al NORTE de GUERRERO NEGRO, BCS: 29.55°, -114.11° 6 km
3.7 2019-01-16    19:33:43 13 km al SUROESTE de PINOTEPA NACIONAL, OAX: 16.28°, -98.16° 14 km
4.3 2019-01-16    19:08:29 171 km al SURESTE de SAN FELIPE, BC: 29.66°, -114.01° 8 km
3.5 2019-01-16    19:00:10 19 km al NORESTE de MANZANILLO, COL: 19.11°, -104.15° 5 km
3.7 2019-01-16    18:36:39 43 km al SUR de S PEDRO POCHUTLA, OAX: 15.36°, -96.44° 54 km
3.7 2019-01-16    17:50:37 53 km al SUROESTE de PINOTEPA NACIONAL, OAX: 16.04°, -98.44° 10 km
3.8 2019-01-16    17:13:32 12 km al SUROESTE de CD IXTEPEC, OAX: 16.47°, -95.15° 77 km
4.2 2019-01-16    17:00:59 21 km al OESTE de COYUCA DE BENITEZ, GRO: 16.97°, -100.28° 32 km
2.3 2019-01-16    16:53:17 9 km al SUROESTE de GPE VICTORIA(KM.43), BC: 32.23°, -115.18° 20 km
3.7 2019-01-16    16:20:20 50 km al ESTE de MIAHUATLAN, OAX: 16.40°, -96.13° 74 km
3.3 2019-01-16    15:53:26 16 km al ESTE de PINOTEPA NACIONAL, OAX: 16.35°, -97.90° 2 km
3.5 2019-01-16    15:07:54 23 km al SUROESTE de PETATLAN, GRO: 17.35°, -101.37° 29 km
2.9 2019-01-16    14:54:54 10 km al SUR de PINOTEPA NACIONAL, OAX: 16.25°, -98.06° 10 km
2.7 2019-01-16    14:50:49 32 km al SUROESTE de GPE VICTORIA(KM.43), BC: 32.10°, -115.35° 10 km
3.9 2019-01-16    14:43:55 56 km al ESTE de CRUCECITA, OAX: 15.67°, -95.62° 36 km
2.5 2019-01-16    14:30:57 11 km al SUROESTE de GPE VICTORIA(KM.43), BC: 32.21°, -115.16° 16 km
2.6 2019-01-16    14:20:52 55 km al NORESTE de VICENTE GUERRERO, BC: 31.11°, -115.63° 14 km
3.8 2019-01-16    14:11:29 12 km al SUR de ATOYAC DE ALVAREZ, GRO: 17.11°, -100.46° 47 km
4.0 2019-01-16    13:58:19 128 km al SUROESTE de PINOTEPA NACIONAL, OAX: 15.58°, -98.95° 11 km
4.0 2019-01-16    13:19:40 57 km al NORESTE de UNION HIDALGO, OAX: 16.72°, -94.36° 124 km
3.0 2019-01-16    12:45:35 23 km al SURESTE de PINOTEPA NACIONAL, OAX: 16.26°, -97.86° 10 km
3.6 2019-01-16    11:56:27 52 km al SURESTE de SAN MARCOS, GRO: 16.50°, -99.00° 16 km
3.1 2019-01-16    11:40:51 18 km al SUROESTE de GPE VICTORIA(KM.43), BC: 32.19°, -115.26° 5 km
3.0 2019-01-16    11:26:20 14 km al SURESTE de PINOTEPA NACIONAL, OAX: 16.28°, -97.94° 35 km
2.9 2019-01-16    11:26:19 28 km al SUROESTE de GPE VICTORIA(KM.43), BC: 32.13°, -115.34° 19 km
3.5 2019-01-16    11:19:38 20 km al SUROESTE de GPE VICTORIA(KM.43), BC: 32.20°, -115.29° 5 km
3.9 2019-01-16    11:16:08 93 km al SURESTE de SALINA CRUZ, OAX: 15.41°, -94.85° 16 km
4.0 2019-01-16    10:43:40 47 km al NORESTE de IXTLAN DEL RIO, NAY: 21.39°, -104.13° 15 km
3.5 2019-01-16    09:49:19 9 km al SURESTE de PINOTEPA NACIONAL, OAX: 16.26°, -98.02° 6 km
4.1 2019-01-16    08:50:45 151 km al SUROESTE de CD HIDALGO, CHIS: 14.05°, -93.39° 15 km
3.4 2019-01-16    08:47:28 2 km al SUROESTE de PINOTEPA NACIONAL, OAX: 16.33°, -98.07° 17 km
3.6 2019-01-16    08:47:25 26 km al SURESTE de TECOMAN, COL: 18.76°, -103.68° 18 km
4.1 2019-01-16    08:09:39 23 km al NOROESTE de OMETEPEC, GRO: 16.84°, -98.54° 40 km
3.1 2019-01-16    07:37:36 12 km al SUR de ATOYAC DE ALVAREZ, GRO: 17.10°, -100.43° 34 km
3.4 2019-01-16    07:35:01 40 km al SUROESTE de OMETEPEC, GRO: 16.34°, -98.51° 4 km
4.4 2019-01-16    07:30:37 33 km al SUROESTE de HUIXTLA, CHIS: 14.91°, -92.65° 79 km
3.4 2019-01-16    07:22:10 11 km al ESTE de COYUCA DE BENITEZ, GRO: 16.98°, -99.98° 5 km
3.9 2019-01-16    07:20:16 56 km al SURESTE de CRUCECITA, OAX: 15.42°, -95.76° 10 km
3.4 2019-01-16    06:45:33 46 km al SUR de PINOTEPA NACIONAL, OAX: 15.94°, -98.15° 12 km
3.8 2019-01-16    06:07:45 76 km al SUROESTE de COALCOMAN, MICH: 18.11°, -103.35° 5 km
4.1 2019-01-16    05:41:16 126 km al SUROESTE de CD HIDALGO, CHIS: 14.24°, -93.23° 13 km
3.9 2019-01-16    05:01:47 14 km al ESTE de S BLAS ATEMPA, OAX: 16.31°, -95.10° 51 km
4.0 2019-01-16    04:30:00 16 km al SUROESTE de JUCHITAN DE ZARAGOZA, OAX: 16.30°, -95.08° 10 km
3.6 2019-01-16    04:29:09 37 km al SUR de SALINA CRUZ, OAX: 15.85°, -95.19° 13 km
3.7 2019-01-16    04:16:52 18 km al OESTE de SAN MARCOS, GRO: 16.83°, -99.56° 18 km
3.5 2019-01-16    02:40:38 43 km al SURESTE de COALCOMAN, MICH: 18.47°, -102.91° 8 km
3.3 2019-01-16    02:40:16 16 km al SURESTE de PINOTEPA NACIONAL, OAX: 16.27°, -97.92° 28 km
3.3 2019-01-16    02:23:13 17 km al SURESTE de PINOTEPA NACIONAL, OAX: 16.27°, -97.91° 21 km
3.7 2019-01-16    02:21:51 87 km al SURESTE de SALINA CRUZ, OAX: 15.49°, -94.81° 11 km
3.6 2019-01-16    01:41:38 33 km al SUROESTE de SAYULA, JAL: 19.64°, -103.78° 19 km
3.9 2019-01-16    01:22:06 117 km al SURESTE de SALINA CRUZ, OAX: 15.26°, -94.67° 16 km
3.2 2019-01-16    00:51:47 36 km al NORTE de PUERTO ESCONDIDO, OAX: 16.18°, -97.01° 19 km
3.2 2019-01-16    00:46:04 28 km al ESTE de PINOTEPA NACIONAL, OAX: 16.31°, -97.79° 2 km
3.5 2019-01-16    00:10:03 74 km al SUR de COALCOMAN, MICH: 18.13°, -103.32° 13 km

Sismo de magnitud menor de 4.0

Sismo de magnitud entre 4.0 y 5.9

Sismo de magnitud igual o mayor de 6.0

Si deseas más información,
consulta nuestro

Catálogo de sismos